Time;durP1;ratioP1;P1;durP2;ratioP2;P2;SDS_P1;SDS_P2;PMS_P1;PMS_P2;Temp;Humidity;BMP_temperature;BMP_pressure;BME280_temperature;BME280_humidity;BME280_pressure;Samples;Min_cycle;Max_cycle;Signal;HPM_P1;HPM_P2
2022/01/27 00:04:52;;;;;;;;;;;5.20;99.90;;;;;;8383408;28;19972;-71
2022/01/27 00:09:00;;;;;;;;;;;5.20;99.90;;;;;;8387440;28;19928;-71
2022/01/27 00:13:02;;;;;;;;;;;5.30;99.90;;;;;;8373435;28;19928;-72
2022/01/27 00:17:13;;;;;;;;;;;5.20;99.90;;;;;;8371809;28;19925;-71
2022/01/27 00:21:16;;;;;;;;;;;5.20;99.90;;;;;;8389141;28;19925;-71
2022/01/27 00:25:18;;;;;;;;;;;5.20;99.90;;;;;;8389987;28;19939;-71
2022/01/27 00:29:20;;;;;;;;;;;5.20;99.90;;;;;;8400683;28;20032;-72
2022/01/27 00:33:21;;;;;;;;;;;5.20;99.90;;;;;;8389182;28;19932;-71
2022/01/27 00:37:23;;;;;;;;;;;5.20;99.90;;;;;;8367290;28;19935;-71
2022/01/27 00:41:25;;;;;;;;;;;5.30;99.90;;;;;;8374055;28;20001;-71
2022/01/27 00:45:30;;;;;;;;;;;5.30;99.90;;;;;;8383556;28;19924;-71
2022/01/27 00:49:31;;;;;;;;;;;5.30;99.90;;;;;;8388979;28;20004;-72
2022/01/27 01:02:10;;;;;;;;;;;5.30;99.90;;;;;;8385083;28;20420;-71
2022/01/27 01:15:06;;;;;;;;;;;5.30;99.90;;;;;;8386853;28;19959;-72
2022/01/27 01:36:14;;;;;;;;;;;5.30;99.90;;;;;;8404301;28;20019;-72
2022/01/27 01:40:16;;;;;;;;;;;5.30;99.90;;;;;;8396964;28;20011;-71
2022/01/27 01:44:18;;;;;;;;;;;5.30;99.90;;;;;;8379622;28;19924;-72
2022/01/27 01:48:20;;;;;;;;;;;5.40;99.90;;;;;;8393567;28;19994;-71
2022/01/27 01:52:22;;;;;;;;;;;5.40;99.90;;;;;;8397070;28;19924;-71
2022/01/27 01:56:24;;;;;;;;;;;5.40;99.90;;;;;;8397749;28;20015;-71
2022/01/27 02:00:26;;;;;;;;;;;5.40;99.90;;;;;;8392234;28;19935;-71
2022/01/27 02:04:28;;;;;;;;;;;5.40;99.90;;;;;;8384736;28;20059;-71
2022/01/27 02:08:47;;;;;;;;;;;5.40;99.90;;;;;;8391092;28;19929;-71
2022/01/27 02:21:28;;;;;;;;;;;5.40;99.90;;;;;;8390724;28;20015;-71
2022/01/27 02:25:31;;;;;;;;;;;5.40;99.90;;;;;;8394059;28;19928;-71
2022/01/27 02:29:33;;;;;;;;;;;5.40;99.90;;;;;;8391033;28;20008;-71
2022/01/27 02:33:35;;;;;;;;;;;5.40;99.90;;;;;;8388877;28;19968;-71
2022/01/27 02:37:36;;;;;;;;;;;5.40;99.90;;;;;;8388954;28;19951;-72
2022/01/27 02:41:47;;;;;;;;;;;5.40;99.90;;;;;;8392798;28;19975;-71
2022/01/27 02:45:59;;;;;;;;;;;5.40;99.90;;;;;;8395141;28;20011;-72
2022/01/27 02:50:04;;;;;;;;;;;5.50;99.90;;;;;;8391248;28;20292;-71
2022/01/27 02:54:05;;;;;;;;;;;5.40;99.90;;;;;;8385021;28;19932;-72
2022/01/27 02:58:08;;;;;;;;;;;5.40;99.90;;;;;;8392759;28;19925;-72
2022/01/27 03:02:09;;;;;;;;;;;5.40;99.90;;;;;;8385117;28;19931;-72
2022/01/27 03:06:11;;;;;;;;;;;5.40;99.90;;;;;;8390641;28;19964;-72
2022/01/27 03:10:12;;;;;;;;;;;5.50;99.90;;;;;;8389919;28;19939;-72
2022/01/27 03:14:15;;;;;;;;;;;5.40;99.90;;;;;;8377857;28;19928;-71
2022/01/27 03:18:17;;;;;;;;;;;5.40;99.90;;;;;;8377705;28;19924;-72
2022/01/27 03:22:18;;;;;;;;;;;5.40;99.90;;;;;;8393939;28;20027;-71
2022/01/27 03:26:21;;;;;;;;;;;5.40;99.90;;;;;;8365418;28;20002;-71
2022/01/27 03:30:22;;;;;;;;;;;5.40;99.90;;;;;;8388752;28;20364;-71
2022/01/27 03:34:24;;;;;;;;;;;5.40;99.90;;;;;;8382897;28;19928;-72
2022/01/27 03:38:26;;;;;;;;;;;5.30;99.90;;;;;;8385905;28;19983;-72
2022/01/27 03:42:28;;;;;;;;;;;5.30;99.90;;;;;;8392961;28;19924;-71
2022/01/27 03:46:30;;;;;;;;;;;5.30;99.90;;;;;;8399515;28;19939;-72
2022/01/27 03:50:32;;;;;;;;;;;5.30;99.90;;;;;;8397541;28;19924;-72
2022/01/27 03:54:33;;;;;;;;;;;5.30;99.90;;;;;;8382922;28;19932;-72
2022/01/27 03:58:35;;;;;;;;;;;5.30;99.90;;;;;;8376876;28;19946;-71
2022/01/27 04:02:41;;;;;;;;;;;5.30;99.90;;;;;;8372796;28;19962;-71
2022/01/27 04:06:43;;;;;;;;;;;5.30;99.90;;;;;;8397326;28;20284;-71
2022/01/27 04:10:44;;;;;;;;;;;5.30;99.90;;;;;;8395268;28;19928;-71
2022/01/27 04:14:46;;;;;;;;;;;5.30;99.90;;;;;;8397582;28;20333;-71
2022/01/27 04:18:48;;;;;;;;;;;5.30;99.90;;;;;;8385472;28;19972;-71
2022/01/27 04:22:49;;;;;;;;;;;5.30;99.90;;;;;;8370563;28;19968;-72
2022/01/27 04:26:59;;;;;;;;;;;5.30;99.90;;;;;;8394450;28;20352;-71
2022/01/27 04:31:04;;;;;;;;;;;5.30;99.90;;;;;;8396230;28;19928;-71
2022/01/27 04:35:09;;;;;;;;;;;5.30;99.90;;;;;;8383935;28;20015;-71
2022/01/27 04:39:24;;;;;;;;;;;5.30;99.90;;;;;;8393961;28;19970;-72
2022/01/27 04:43:50;;;;;;;;;;;5.30;99.90;;;;;;8394217;28;19925;-71
2022/01/27 04:47:58;;;;;;;;;;;5.30;99.90;;;;;;8399854;28;20408;-71
2022/01/27 04:52:00;;;;;;;;;;;5.40;99.90;;;;;;8376182;28;19960;-72
2022/01/27 04:56:01;;;;;;;;;;;5.40;99.90;;;;;;8399034;28;19987;-71
2022/01/27 05:00:04;;;;;;;;;;;5.40;99.90;;;;;;8377935;28;19967;-71
2022/01/27 05:04:13;;;;;;;;;;;5.50;99.90;;;;;;8367506;28;20391;-71
2022/01/27 05:08:19;;;;;;;;;;;5.60;99.90;;;;;;8398114;28;19971;-71
2022/01/27 05:12:33;;;;;;;;;;;5.60;99.90;;;;;;8397814;28;20068;-71
2022/01/27 05:16:34;;;;;;;;;;;5.60;99.90;;;;;;8392478;28;19979;-71
2022/01/27 05:20:36;;;;;;;;;;;5.60;99.90;;;;;;8375549;28;19924;-71
2022/01/27 05:24:38;;;;;;;;;;;5.60;99.90;;;;;;8401765;28;19959;-71
2022/01/27 05:28:39;;;;;;;;;;;5.70;99.90;;;;;;8398478;28;20007;-72
2022/01/27 05:32:41;;;;;;;;;;;5.70;99.90;;;;;;8378081;28;19924;-72
2022/01/27 05:36:42;;;;;;;;;;;5.70;99.90;;;;;;8391629;28;20015;-72
2022/01/27 05:40:44;;;;;;;;;;;5.70;99.90;;;;;;8386427;28;20038;-71
2022/01/27 05:44:45;;;;;;;;;;;5.80;99.90;;;;;;8392802;28;19964;-71
2022/01/27 05:48:47;;;;;;;;;;;5.80;99.90;;;;;;8384236;28;20406;-72
2022/01/27 05:52:49;;;;;;;;;;;5.80;99.90;;;;;;8381531;28;19967;-72
2022/01/27 05:56:50;;;;;;;;;;;5.90;99.90;;;;;;8405138;28;20741;-72
2022/01/27 06:00:52;;;;;;;;;;;5.90;99.90;;;;;;8386550;28;19928;-72
2022/01/27 06:04:54;;;;;;;;;;;5.90;99.90;;;;;;8387264;28;20227;-71
2022/01/27 06:08:55;;;;;;;;;;;6.00;99.90;;;;;;8392819;28;20344;-71
2022/01/27 06:12:57;;;;;;;;;;;6.00;99.90;;;;;;8392484;28;19975;-72
2022/01/27 06:16:58;;;;;;;;;;;6.10;99.90;;;;;;8399444;28;20050;-72
2022/01/27 06:21:03;;;;;;;;;;;6.10;99.90;;;;;;8404478;28;19929;-72
2022/01/27 06:25:05;;;;;;;;;;;6.10;99.90;;;;;;8379586;28;20331;-72
2022/01/27 06:29:07;;;;;;;;;;;6.10;99.90;;;;;;8371903;28;20304;-72
2022/01/27 06:33:09;;;;;;;;;;;6.10;99.90;;;;;;8383576;28;19924;-72
2022/01/27 06:37:10;;;;;;;;;;;6.20;99.90;;;;;;8387228;28;19975;-72
2022/01/27 06:41:13;;;;;;;;;;;6.20;99.90;;;;;;8383224;28;19946;-71
2022/01/27 06:45:15;;;;;;;;;;;6.20;99.90;;;;;;8379816;28;20380;-72
2022/01/27 06:49:17;;;;;;;;;;;6.20;99.90;;;;;;8368644;28;19963;-72
2022/01/27 06:53:19;;;;;;;;;;;6.20;99.90;;;;;;8371191;28;19935;-72
2022/01/27 06:57:21;;;;;;;;;;;6.30;99.90;;;;;;8409237;28;19982;-72
2022/01/27 07:01:22;;;;;;;;;;;6.30;99.90;;;;;;8391427;28;19968;-72
2022/01/27 07:05:24;;;;;;;;;;;6.30;99.90;;;;;;8365716;28;19944;-72
2022/01/27 07:09:26;;;;;;;;;;;6.20;99.90;;;;;;8390668;28;19925;-72
2022/01/27 07:13:27;;;;;;;;;;;6.20;99.90;;;;;;8373762;28;19963;-72
2022/01/27 07:17:29;;;;;;;;;;;6.10;99.90;;;;;;8393496;28;20373;-72
2022/01/27 07:21:31;;;;;;;;;;;6.10;99.90;;;;;;8375365;28;19968;-71
2022/01/27 07:25:33;;;;;;;;;;;6.00;99.90;;;;;;8385300;28;20341;-72
2022/01/27 07:29:34;;;;;;;;;;;6.00;99.90;;;;;;8391979;28;20510;-71
2022/01/27 07:33:36;;;;;;;;;;;5.90;99.90;;;;;;8369354;28;20354;-71
2022/01/27 07:37:40;;;;;;;;;;;5.80;99.90;;;;;;8383992;28;19955;-71
2022/01/27 07:41:44;;;;;;;;;;;5.80;99.90;;;;;;8388942;28;19960;-71
2022/01/27 07:45:45;;;;;;;;;;;5.80;99.90;;;;;;8384828;28;20404;-71
2022/01/27 07:49:47;;;;;;;;;;;5.80;99.90;;;;;;8383573;28;19924;-71
2022/01/27 07:53:49;;;;;;;;;;;5.80;99.90;;;;;;8377824;28;19956;-71
2022/01/27 07:58:03;;;;;;;;;;;5.80;99.90;;;;;;8386100;28;19932;-71
2022/01/27 08:02:05;;;;;;;;;;;5.80;99.90;;;;;;8358452;28;20389;-71
2022/01/27 08:06:07;;;;;;;;;;;5.80;99.90;;;;;;8383117;28;20019;-71
2022/01/27 08:10:08;;;;;;;;;;;5.90;99.90;;;;;;8398204;28;20317;-70
2022/01/27 08:14:10;;;;;;;;;;;5.90;99.90;;;;;;8382400;28;19939;-71
2022/01/27 08:18:12;;;;;;;;;;;6.00;99.90;;;;;;8378575;28;19995;-72
2022/01/27 08:22:13;;;;;;;;;;;6.00;99.90;;;;;;8365730;28;19973;-71
2022/01/27 08:26:26;;;;;;;;;;;6.00;99.90;;;;;;8381084;28;20421;-71
2022/01/27 08:30:35;;;;;;;;;;;6.10;99.90;;;;;;8386925;28;19935;-71
2022/01/27 08:34:39;;;;;;;;;;;6.10;99.90;;;;;;8381948;28;19975;-71
2022/01/27 08:38:43;;;;;;;;;;;6.10;99.90;;;;;;8394027;28;20411;-72
2022/01/27 08:42:45;;;;;;;;;;;6.20;99.90;;;;;;8371573;28;19978;-71
2022/01/27 08:46:47;;;;;;;;;;;6.20;99.90;;;;;;8371440;28;19971;-71
2022/01/27 08:51:11;;;;;;;;;;;6.30;99.90;;;;;;8372401;28;19986;-71
2022/01/27 08:55:22;;;;;;;;;;;6.30;99.90;;;;;;8383913;28;19931;-71
2022/01/27 08:59:23;;;;;;;;;;;6.40;99.90;;;;;;8381807;28;19983;-71
2022/01/27 09:03:25;;;;;;;;;;;6.40;99.90;;;;;;8376401;28;20046;-71
2022/01/27 09:07:26;;;;;;;;;;;6.40;99.90;;;;;;8380558;28;19924;-71
2022/01/27 09:11:30;;;;;;;;;;;6.50;99.90;;;;;;8384493;28;20280;-71
2022/01/27 09:15:32;;;;;;;;;;;6.50;99.90;;;;;;8385619;28;19971;-70
2022/01/27 09:19:38;;;;;;;;;;;6.50;99.90;;;;;;8388578;28;19977;-71
2022/01/27 09:23:39;;;;;;;;;;;6.60;99.90;;;;;;8394400;28;20392;-71
2022/01/27 09:27:42;;;;;;;;;;;6.60;99.90;;;;;;8369919;28;19974;-71
2022/01/27 09:31:45;;;;;;;;;;;6.60;99.90;;;;;;8393141;28;20000;-70
2022/01/27 09:35:48;;;;;;;;;;;6.70;99.90;;;;;;8394931;28;19924;-70
2022/01/27 09:39:51;;;;;;;;;;;6.70;99.90;;;;;;8382881;28;19924;-71
2022/01/27 09:43:53;;;;;;;;;;;6.80;99.90;;;;;;8386487;28;19964;-71
2022/01/27 09:47:59;;;;;;;;;;;6.80;99.90;;;;;;8393105;28;20001;-71
2022/01/27 09:52:01;;;;;;;;;;;6.80;99.90;;;;;;8366124;28;19931;-71
2022/01/27 09:56:03;;;;;;;;;;;6.90;99.90;;;;;;8390694;28;19960;-71
2022/01/27 10:00:06;;;;;;;;;;;6.90;99.90;;;;;;8389860;28;19936;-71
2022/01/27 10:04:09;;;;;;;;;;;7.00;99.90;;;;;;8377221;28;20008;-71
2022/01/27 10:08:17;;;;;;;;;;;7.00;99.90;;;;;;8393388;28;19972;-71
2022/01/27 10:12:23;;;;;;;;;;;7.10;99.90;;;;;;8393973;28;20444;-71
2022/01/27 10:16:35;;;;;;;;;;;7.10;99.90;;;;;;8373485;28;19960;-71
2022/01/27 10:20:38;;;;;;;;;;;7.20;99.90;;;;;;8383002;28;19933;-72
2022/01/27 10:24:40;;;;;;;;;;;7.20;99.90;;;;;;8383008;28;20363;-71
2022/01/27 10:28:51;;;;;;;;;;;7.30;99.90;;;;;;8375180;28;19931;-71
2022/01/27 10:32:57;;;;;;;;;;;7.30;99.90;;;;;;8367852;28;20030;-70
2022/01/27 10:36:58;;;;;;;;;;;7.30;99.90;;;;;;8390361;28;19924;-70
2022/01/27 10:41:05;;;;;;;;;;;7.30;99.90;;;;;;8392751;28;19968;-70
2022/01/27 10:45:08;;;;;;;;;;;7.40;99.90;;;;;;8367563;28;21279;-71
2022/01/27 10:49:19;;;;;;;;;;;7.40;99.90;;;;;;8389076;28;20362;-71
2022/01/27 10:53:21;;;;;;;;;;;7.40;99.90;;;;;;8387988;28;19925;-71
2022/01/27 10:57:24;;;;;;;;;;;7.50;99.90;;;;;;8395331;28;19982;-71
2022/01/27 11:01:30;;;;;;;;;;;7.50;99.90;;;;;;8378104;28;19935;-70
2022/01/27 11:05:38;;;;;;;;;;;7.60;99.90;;;;;;8373325;28;19924;-70
2022/01/27 11:09:43;;;;;;;;;;;7.60;99.90;;;;;;8389624;28;19931;-71
2022/01/27 11:13:46;;;;;;;;;;;7.70;99.90;;;;;;8370645;28;20208;-71
2022/01/27 11:17:49;;;;;;;;;;;7.70;99.90;;;;;;8367821;28;19987;-70
2022/01/27 11:22:39;;;;;;;;;;;7.70;99.90;;;;;;8373818;28;19931;-70
2022/01/27 11:26:33;;;;;;;;;;;7.80;99.90;;;;;;8381117;28;20359;-71
2022/01/27 11:30:52;;;;;;;;;;;7.80;99.90;;;;;;8364451;28;20214;-71
2022/01/27 11:34:55;;;;;;;;;;;7.90;99.90;;;;;;8378270;28;19925;-70
2022/01/27 11:38:58;;;;;;;;;;;7.90;99.90;;;;;;8386571;28;19932;-70
2022/01/27 11:42:59;;;;;;;;;;;7.90;99.90;;;;;;8385301;28;19978;-70
2022/01/27 11:47:07;;;;;;;;;;;7.90;99.90;;;;;;8382425;28;19928;-70
2022/01/27 11:51:13;;;;;;;;;;;7.90;99.90;;;;;;8387031;28;19932;-70
2022/01/27 11:55:24;;;;;;;;;;;7.90;99.90;;;;;;8384948;28;19925;-70
2022/01/27 11:59:36;;;;;;;;;;;7.90;99.90;;;;;;8371814;28;19936;-71
2022/01/27 12:04:00;;;;;;;;;;;8.00;99.90;;;;;;8382200;28;19978;-71
2022/01/27 12:08:18;;;;;;;;;;;8.00;99.90;;;;;;8360042;28;20343;-70
2022/01/27 12:12:33;;;;;;;;;;;8.10;99.90;;;;;;8383448;28;20415;-71
2022/01/27 12:20:43;;;;;;;;;;;8.10;99.90;;;;;;8388770;28;19978;-70
2022/01/27 12:24:52;;;;;;;;;;;8.10;99.90;;;;;;8370166;28;19925;-71
2022/01/27 12:28:53;;;;;;;;;;;8.20;99.90;;;;;;8387420;28;20414;-71
2022/01/27 12:32:56;;;;;;;;;;;8.30;99.90;;;;;;8365619;28;20005;-71
2022/01/27 12:36:57;;;;;;;;;;;8.30;99.90;;;;;;8371532;28;19928;-70
2022/01/27 12:40:59;;;;;;;;;;;8.40;99.90;;;;;;8394533;28;19975;-71
2022/01/27 12:45:04;;;;;;;;;;;8.60;99.90;;;;;;8382538;28;19960;-71
2022/01/27 12:49:05;;;;;;;;;;;8.70;99.90;;;;;;8386006;28;19931;-70
2022/01/27 12:53:11;;;;;;;;;;;8.80;99.90;;;;;;8375266;28;19924;-71
2022/01/27 12:57:13;;;;;;;;;;;8.90;99.90;;;;;;8389401;28;20348;-70
2022/01/27 13:01:16;;;;;;;;;;;9.00;99.90;;;;;;8396410;28;19985;-70
2022/01/27 13:05:17;;;;;;;;;;;9.10;99.90;;;;;;8395486;28;20015;-71
2022/01/27 13:09:19;;;;;;;;;;;9.20;99.90;;;;;;8382269;28;19952;-70
2022/01/27 13:13:25;;;;;;;;;;;9.20;99.90;;;;;;8375264;28;20376;-70
2022/01/27 13:17:33;;;;;;;;;;;9.20;99.90;;;;;;8391949;28;20000;-71
2022/01/27 13:21:37;;;;;;;;;;;9.20;99.90;;;;;;8371341;28;20372;-70
2022/01/27 13:25:44;;;;;;;;;;;9.20;99.90;;;;;;8389003;28;19936;-71
2022/01/27 13:29:46;;;;;;;;;;;9.30;99.90;;;;;;8390393;28;19966;-70
2022/01/27 13:33:48;;;;;;;;;;;9.30;99.90;;;;;;8393722;28;19932;-70
2022/01/27 13:37:50;;;;;;;;;;;9.40;99.90;;;;;;8392135;28;19963;-70
2022/01/27 13:41:51;;;;;;;;;;;9.50;99.90;;;;;;8384125;28;19947;-71
2022/01/27 13:45:53;;;;;;;;;;;9.70;99.90;;;;;;8391417;28;19979;-70
2022/01/27 13:50:06;;;;;;;;;;;9.80;99.90;;;;;;8392560;28;19983;-70
2022/01/27 13:54:08;;;;;;;;;;;9.80;99.90;;;;;;8380269;28;19925;-71
2022/01/27 13:58:10;;;;;;;;;;;9.70;99.90;;;;;;8382091;28;19931;-71
2022/01/27 14:02:19;;;;;;;;;;;9.70;99.90;;;;;;8375316;28;19971;-71
2022/01/27 14:06:22;;;;;;;;;;;9.60;99.90;;;;;;8370919;28;20040;-70
2022/01/27 14:10:27;;;;;;;;;;;9.60;99.90;;;;;;8371538;28;20039;-71
2022/01/27 14:14:48;;;;;;;;;;;9.60;99.90;;;;;;8373280;28;19931;-70
2022/01/27 14:18:51;;;;;;;;;;;9.50;99.90;;;;;;8389165;28;19976;-70
2022/01/27 14:23:19;;;;;;;;;;;9.40;99.90;;;;;;8385162;28;19967;-70
2022/01/27 14:27:29;;;;;;;;;;;9.40;99.90;;;;;;8364265;28;19970;-70
2022/01/27 14:31:32;;;;;;;;;;;9.40;99.90;;;;;;8384923;28;20018;-71
2022/01/27 14:35:38;;;;;;;;;;;9.40;99.90;;;;;;8382312;28;19924;-70
2022/01/27 14:39:40;;;;;;;;;;;9.30;99.90;;;;;;8368442;28;19931;-70
2022/01/27 14:43:42;;;;;;;;;;;9.30;99.90;;;;;;8386458;28;20011;-70
2022/01/27 14:47:51;;;;;;;;;;;9.30;99.90;;;;;;8390415;28;19925;-70
2022/01/27 14:51:53;;;;;;;;;;;9.30;99.90;;;;;;8383160;28;20023;-70
2022/01/27 14:55:54;;;;;;;;;;;9.30;99.90;;;;;;8389606;28;19990;-70
2022/01/27 14:59:56;;;;;;;;;;;9.30;99.90;;;;;;8371291;28;19931;-70
2022/01/27 15:03:57;;;;;;;;;;;9.20;99.90;;;;;;8373994;28;20277;-70
2022/01/27 15:07:59;;;;;;;;;;;9.20;99.90;;;;;;8368996;28;19924;-70
2022/01/27 15:12:01;;;;;;;;;;;9.20;99.90;;;;;;8378037;28;20406;-70
2022/01/27 15:20:26;;;;;;;;;;;9.20;99.90;;;;;;8387283;28;20431;-70
2022/01/27 15:24:28;;;;;;;;;;;9.10;99.90;;;;;;8380625;28;19971;-71
2022/01/27 15:28:30;;;;;;;;;;;9.10;99.90;;;;;;8384093;28;19924;-71
2022/01/27 15:32:32;;;;;;;;;;;9.10;99.90;;;;;;8366512;28;20522;-70
2022/01/27 15:36:33;;;;;;;;;;;9.10;99.90;;;;;;8366792;28;19932;-70
2022/01/27 15:40:53;;;;;;;;;;;9.00;99.90;;;;;;8365211;28;20372;-71
2022/01/27 15:44:55;;;;;;;;;;;8.90;99.90;;;;;;8384209;28;20407;-71
2022/01/27 15:48:57;;;;;;;;;;;8.90;99.90;;;;;;8381223;28;19932;-71
2022/01/27 15:52:59;;;;;;;;;;;8.90;99.90;;;;;;8376236;28;19947;-71
2022/01/27 15:57:02;;;;;;;;;;;8.90;99.90;;;;;;8359237;28;19928;-71
2022/01/27 16:01:03;;;;;;;;;;;8.90;99.90;;;;;;8338495;28;19928;-71
2022/01/27 16:05:07;;;;;;;;;;;8.90;99.90;;;;;;8358492;28;19929;-72
2022/01/27 16:09:08;;;;;;;;;;;8.90;99.90;;;;;;8351935;28;19942;-71
2022/01/27 16:13:10;;;;;;;;;;;8.90;99.90;;;;;;8362731;28;19931;-72
2022/01/27 16:17:12;;;;;;;;;;;8.80;99.90;;;;;;8342894;28;21177;-71
2022/01/27 16:21:14;;;;;;;;;;;8.80;99.90;;;;;;8357147;28;19953;-71
2022/01/27 16:25:15;;;;;;;;;;;8.80;99.90;;;;;;8359900;28;20376;-72
2022/01/27 16:29:17;;;;;;;;;;;8.70;99.90;;;;;;8370456;28;19925;-72
2022/01/27 16:33:18;;;;;;;;;;;8.70;99.90;;;;;;8345672;28;19928;-72
2022/01/27 16:37:21;;;;;;;;;;;8.70;99.90;;;;;;8369663;28;19987;-71
2022/01/27 16:41:23;;;;;;;;;;;8.70;99.90;;;;;;8362712;28;19936;-72
2022/01/27 16:45:24;;;;;;;;;;;8.60;99.90;;;;;;8344229;28;20040;-72
2022/01/27 16:49:26;;;;;;;;;;;8.60;99.90;;;;;;8363160;28;20402;-72
2022/01/27 16:53:28;;;;;;;;;;;8.60;99.90;;;;;;8361373;28;20432;-71
2022/01/27 16:57:29;;;;;;;;;;;8.60;99.90;;;;;;8358592;28;19940;-72
2022/01/27 17:01:31;;;;;;;;;;;8.50;99.90;;;;;;8358121;28;19991;-71
2022/01/27 17:05:33;;;;;;;;;;;8.50;99.90;;;;;;8343433;28;19935;-71
2022/01/27 17:09:36;;;;;;;;;;;8.50;99.90;;;;;;8365569;28;19932;-72
2022/01/27 17:13:38;;;;;;;;;;;8.40;99.90;;;;;;8342950;28;19972;-71
2022/01/27 17:17:46;;;;;;;;;;;8.30;99.90;;;;;;8343127;28;19956;-71
2022/01/27 17:21:48;;;;;;;;;;;8.20;99.90;;;;;;8339402;28;20606;-71
2022/01/27 17:25:49;;;;;;;;;;;8.10;99.90;;;;;;8378482;28;19928;-72
2022/01/27 17:29:51;;;;;;;;;;;8.10;99.90;;;;;;8361176;28;19948;-72
2022/01/27 17:33:53;;;;;;;;;;;8.00;99.90;;;;;;8364802;28;19931;-72
2022/01/27 17:37:54;;;;;;;;;;;7.90;99.90;;;;;;8367854;28;19939;-72
2022/01/27 17:42:02;;;;;;;;;;;7.90;99.90;;;;;;8356563;28;20331;-72
2022/01/27 17:46:04;;;;;;;;;;;7.90;99.90;;;;;;8359198;28;20159;-72
2022/01/27 17:50:06;;;;;;;;;;;7.90;99.90;;;;;;8361506;28;20739;-71
2022/01/27 17:54:08;;;;;;;;;;;7.90;99.90;;;;;;8358514;28;20388;-71
2022/01/27 17:58:10;;;;;;;;;;;7.90;99.90;;;;;;8371858;28;19991;-72
2022/01/27 18:02:11;;;;;;;;;;;7.90;99.90;;;;;;8370479;28;19931;-72
2022/01/27 18:06:14;;;;;;;;;;;7.90;99.90;;;;;;8372567;28;19928;-72
2022/01/27 18:10:19;;;;;;;;;;;8.00;99.90;;;;;;8364354;28;19968;-71
2022/01/27 18:14:25;;;;;;;;;;;8.00;99.90;;;;;;8342058;28;19968;-71
2022/01/27 18:18:27;;;;;;;;;;;7.90;99.90;;;;;;8359320;28;20471;-72
2022/01/27 18:22:28;;;;;;;;;;;7.90;99.90;;;;;;8356758;28;20356;-71
2022/01/27 18:26:30;;;;;;;;;;;7.90;99.90;;;;;;8358578;28;20079;-72
2022/01/27 18:30:31;;;;;;;;;;;7.80;99.90;;;;;;8357465;28;19928;-71
2022/01/27 18:34:33;;;;;;;;;;;7.70;99.90;;;;;;8354854;28;20023;-72
2022/01/27 18:38:35;;;;;;;;;;;7.70;99.90;;;;;;8361455;28;19937;-71
2022/01/27 18:42:36;;;;;;;;;;;7.70;99.90;;;;;;8335969;28;20020;-71
2022/01/27 18:46:38;;;;;;;;;;;7.60;99.90;;;;;;8357546;28;19940;-72
2022/01/27 18:50:42;;;;;;;;;;;7.60;99.90;;;;;;8340341;28;20458;-71
2022/01/27 18:54:44;;;;;;;;;;;7.60;99.90;;;;;;8338214;28;19925;-71
2022/01/27 18:58:45;;;;;;;;;;;7.60;99.90;;;;;;8355996;28;20028;-72
2022/01/27 19:02:47;;;;;;;;;;;7.60;99.90;;;;;;8343267;28;20903;-72
2022/01/27 19:06:48;;;;;;;;;;;7.60;99.90;;;;;;8364027;28;19972;-72
2022/01/27 19:10:53;;;;;;;;;;;7.60;99.90;;;;;;8347012;28;20019;-72
2022/01/27 19:14:54;;;;;;;;;;;7.60;99.90;;;;;;8363282;28;20406;-71
2022/01/27 19:18:56;;;;;;;;;;;7.60;99.90;;;;;;8346511;28;20011;-72
2022/01/27 19:22:58;;;;;;;;;;;7.60;99.90;;;;;;8341561;28;19956;-72
2022/01/27 19:27:02;;;;;;;;;;;7.60;99.90;;;;;;8342608;28;20020;-71
2022/01/27 19:31:04;;;;;;;;;;;7.60;99.90;;;;;;8347788;28;19946;-71
2022/01/27 19:35:08;;;;;;;;;;;7.70;99.90;;;;;;8375374;28;20367;-72
2022/01/27 19:39:10;;;;;;;;;;;7.60;99.90;;;;;;8362990;28;22176;-71
2022/01/27 19:43:12;;;;;;;;;;;7.60;99.90;;;;;;8349756;28;19928;-72
2022/01/27 19:47:14;;;;;;;;;;;7.60;99.90;;;;;;8353712;28;20786;-72
2022/01/27 19:51:23;;;;;;;;;;;7.60;99.90;;;;;;8370308;28;19990;-72
2022/01/27 19:55:25;;;;;;;;;;;7.60;99.90;;;;;;8341519;28;20023;-72
2022/01/27 19:59:27;;;;;;;;;;;7.50;99.90;;;;;;8360427;28;20378;-72
2022/01/27 20:03:28;;;;;;;;;;;7.50;99.90;;;;;;8356981;28;20711;-72
2022/01/27 20:07:31;;;;;;;;;;;7.50;99.90;;;;;;8359490;28;19982;-72
2022/01/27 20:11:32;;;;;;;;;;;7.50;99.90;;;;;;8347486;28;20055;-72
2022/01/27 20:15:36;;;;;;;;;;;7.50;99.90;;;;;;8360113;28;19971;-71
2022/01/27 20:19:38;;;;;;;;;;;7.40;99.90;;;;;;8361319;28;20023;-72
2022/01/27 20:23:40;;;;;;;;;;;7.40;99.90;;;;;;8343519;28;20035;-72
2022/01/27 20:27:42;;;;;;;;;;;7.30;99.90;;;;;;8342390;28;20347;-72
2022/01/27 20:31:44;;;;;;;;;;;7.30;99.90;;;;;;8358454;28;20019;-72
2022/01/27 20:35:47;;;;;;;;;;;7.20;99.90;;;;;;8342124;28;19924;-73
2022/01/27 20:39:48;;;;;;;;;;;7.20;99.90;;;;;;8358086;28;20037;-72
2022/01/27 20:43:58;;;;;;;;;;;7.20;99.90;;;;;;8342936;28;19924;-72
2022/01/27 20:47:59;;;;;;;;;;;7.20;99.90;;;;;;8342207;28;20088;-72
2022/01/27 20:52:01;;;;;;;;;;;7.10;99.90;;;;;;8337781;28;20550;-73
2022/01/27 20:56:04;;;;;;;;;;;7.00;99.90;;;;;;8360092;28;19967;-72
2022/01/27 21:00:08;;;;;;;;;;;7.00;99.90;;;;;;8360317;28;19968;-72
2022/01/27 21:04:10;;;;;;;;;;;6.90;99.90;;;;;;8359082;28;19944;-72
2022/01/27 21:08:13;;;;;;;;;;;7.00;99.90;;;;;;8359594;28;19925;-72
2022/01/27 21:12:15;;;;;;;;;;;6.90;99.90;;;;;;8344173;28;20022;-72
2022/01/27 21:16:16;;;;;;;;;;;6.90;99.90;;;;;;8363170;28;20019;-72
2022/01/27 21:20:23;;;;;;;;;;;6.80;99.90;;;;;;8347004;28;19970;-72
2022/01/27 21:24:25;;;;;;;;;;;6.80;99.90;;;;;;8364139;28;19990;-71
2022/01/27 21:28:27;;;;;;;;;;;6.80;99.90;;;;;;8363939;28;19962;-72
2022/01/27 21:32:29;;;;;;;;;;;6.80;99.90;;;;;;8346713;28;20021;-71
2022/01/27 21:36:30;;;;;;;;;;;6.80;99.90;;;;;;8364234;28;20027;-71
2022/01/27 21:40:32;;;;;;;;;;;6.90;99.90;;;;;;8362294;28;20360;-72
2022/01/27 21:44:34;;;;;;;;;;;6.90;99.90;;;;;;8342766;28;19932;-71
2022/01/27 21:48:37;;;;;;;;;;;6.90;99.90;;;;;;8360306;28;19932;-71
2022/01/27 21:52:38;;;;;;;;;;;6.90;99.90;;;;;;8342143;28;20415;-72
2022/01/27 21:56:40;;;;;;;;;;;6.80;99.90;;;;;;8360387;28;20027;-71
2022/01/27 22:00:42;;;;;;;;;;;6.80;99.90;;;;;;8362974;28;19986;-72
2022/01/27 22:04:44;;;;;;;;;;;6.80;99.90;;;;;;8370377;28;19998;-71
2022/01/27 22:08:45;;;;;;;;;;;6.80;99.90;;;;;;8390716;28;20016;-71
2022/01/27 22:12:47;;;;;;;;;;;6.80;99.90;;;;;;8388207;28;20006;-72
2022/01/27 22:16:51;;;;;;;;;;;6.80;99.90;;;;;;8388736;28;20352;-71
2022/01/27 22:20:53;;;;;;;;;;;6.80;99.90;;;;;;8392328;28;20403;-72
2022/01/27 22:24:54;;;;;;;;;;;6.80;99.90;;;;;;8380897;28;19972;-71
2022/01/27 22:28:56;;;;;;;;;;;6.80;99.90;;;;;;8386419;28;19963;-72
2022/01/27 22:32:57;;;;;;;;;;;6.70;99.90;;;;;;8389079;28;19924;-71
2022/01/27 22:37:00;;;;;;;;;;;6.70;99.90;;;;;;8384081;28;20027;-71
2022/01/27 22:41:02;;;;;;;;;;;6.60;99.90;;;;;;8377316;28;19924;-72
2022/01/27 22:45:04;;;;;;;;;;;6.60;99.90;;;;;;8383591;28;20433;-71
2022/01/27 22:49:08;;;;;;;;;;;6.60;99.90;;;;;;8373085;28;20367;-71
2022/01/27 22:53:10;;;;;;;;;;;6.50;99.90;;;;;;8365668;28;19959;-72
2022/01/27 22:57:11;;;;;;;;;;;6.50;99.90;;;;;;8367585;28;20347;-72
2022/01/27 23:01:13;;;;;;;;;;;6.50;99.90;;;;;;8381160;28;19924;-72
2022/01/27 23:05:14;;;;;;;;;;;6.40;99.90;;;;;;8363734;28;20367;-72
2022/01/27 23:09:21;;;;;;;;;;;6.30;99.90;;;;;;8390729;28;19925;-71
2022/01/27 23:13:27;;;;;;;;;;;6.30;99.90;;;;;;8389579;28;19948;-71
2022/01/27 23:22:14;;;;;;;;;;;6.20;99.90;;;;;;8389808;28;20019;-71
2022/01/27 23:30:35;;;;;;;;;;;6.10;99.90;;;;;;8385510;28;20388;-71
2022/01/27 23:34:37;;;;;;;;;;;6.00;99.90;;;;;;8370149;28;19925;-72
2022/01/27 23:46:56;;;;;;;;;;;5.90;99.90;;;;;;8379465;28;19983;-71
2022/01/27 23:51:06;;;;;;;;;;;5.90;99.90;;;;;;8386988;28;19936;-71
2022/01/27 23:55:24;;;;;;;;;;;5.80;99.90;;;;;;8391911;28;19933;-71
2022/01/27 23:59:43;;;;;;;;;;;5.80;99.90;;;;;;8388399;28;19971;-71
